createdAt,value
2022-09-14T00:01:25.719Z,9.20
2022-09-14T00:03:27.680Z,10.43
2022-09-14T00:05:29.262Z,9.97
2022-09-14T00:07:30.826Z,9.37
2022-09-14T00:09:32.856Z,9.87
2022-09-14T00:11:36.365Z,8.77
2022-09-14T00:13:39.487Z,9.27
2022-09-14T00:15:45.141Z,10.00
2022-09-14T00:17:46.655Z,9.43
2022-09-14T00:19:48.995Z,9.50
2022-09-14T00:21:53.353Z,8.63
2022-09-14T00:23:54.883Z,9.07
2022-09-14T00:25:56.482Z,8.43
2022-09-14T00:27:58.382Z,8.57
2022-09-14T00:29:59.909Z,7.90
2022-09-14T00:32:01.907Z,8.13
2022-09-14T00:34:05.406Z,7.93
2022-09-14T00:36:26.617Z,8.23
2022-09-14T00:38:28.203Z,8.10
2022-09-14T00:40:30.194Z,7.90
2022-09-14T00:42:32.127Z,8.23
2022-09-14T00:44:33.598Z,8.20
2022-09-14T00:46:43.725Z,7.70
2022-09-14T00:48:45.422Z,8.50
2022-09-14T00:50:47.980Z,7.82
2022-09-14T00:52:50.659Z,7.82
2022-09-14T00:54:57.992Z,7.47
2022-09-14T00:57:02.949Z,8.60
2022-09-14T00:59:11.623Z,8.35
2022-09-14T01:01:13.694Z,8.07
2022-09-14T01:03:15.319Z,8.52
2022-09-14T01:05:17.970Z,9.70
2022-09-14T01:07:52.823Z,8.25
2022-09-14T01:10:03.461Z,8.30
2022-09-14T01:12:45.305Z,9.23
2022-09-14T01:15:23.406Z,7.78
2022-09-14T01:17:36.002Z,7.87
2022-09-14T01:19:40.408Z,7.73
2022-09-14T01:21:44.224Z,7.00
2022-09-14T01:24:02.375Z,7.45
2022-09-14T01:26:36.259Z,7.35
2022-09-14T01:29:02.113Z,6.80
2022-09-14T01:31:09.228Z,6.00
2022-09-14T01:33:20.851Z,6.17
2022-09-14T01:35:35.892Z,5.83
2022-09-14T01:38:04.978Z,5.03
2022-09-14T01:40:39.468Z,4.77
2022-09-14T01:42:45.412Z,4.47
2022-09-14T01:44:52.154Z,4.90
2022-09-14T01:46:57.312Z,5.13
2022-09-14T01:49:04.184Z,4.30
2022-09-14T01:51:12.635Z,4.53
2022-09-14T01:53:22.577Z,4.70
2022-09-14T01:55:33.416Z,4.50
2022-09-14T01:58:26.696Z,4.40
2022-09-14T02:00:28.657Z,4.23
2022-09-14T02:02:40.610Z,4.20
2022-09-14T02:05:21.426Z,4.60
2022-09-14T02:07:23.754Z,4.50
2022-09-14T02:09:26.977Z,4.78
2022-09-14T02:11:28.735Z,4.95
2022-09-14T02:13:30.525Z,4.88
2022-09-14T02:15:32.235Z,5.53
2022-09-14T02:17:33.996Z,5.82
2022-09-14T02:19:41.891Z,5.67
2022-09-14T02:21:43.979Z,5.10
2022-09-14T02:23:48.090Z,6.27
2022-09-14T02:25:50.007Z,6.17
2022-09-14T02:27:52.552Z,6.03
2022-09-14T02:29:54.348Z,6.10
2022-09-14T02:32:12.615Z,6.43
2022-09-14T02:34:28.384Z,6.57
2022-09-14T02:36:51.274Z,6.63
2022-09-14T02:39:07.062Z,7.00
2022-09-14T02:41:14.385Z,7.10
2022-09-14T02:43:28.069Z,7.40
2022-09-14T02:45:58.441Z,7.00
2022-09-14T02:48:21.545Z,7.10
2022-09-14T02:50:35.212Z,7.20
2022-09-14T02:53:06.671Z,7.03
2022-09-14T02:55:12.893Z,7.63
2022-09-14T02:57:14.468Z,8.20
2022-09-14T02:59:16.829Z,7.43
2022-09-14T03:01:20.733Z,7.75
2022-09-14T03:03:22.355Z,8.23
2022-09-14T03:05:24.305Z,8.32
2022-09-14T03:07:25.827Z,8.40
2022-09-14T03:09:27.500Z,9.77
2022-09-14T03:11:29.115Z,9.60
2022-09-14T03:13:30.672Z,10.25
2022-09-14T03:15:32.326Z,9.32
2022-09-14T03:17:33.854Z,10.13
2022-09-14T03:19:35.378Z,11.07
2022-09-14T03:21:38.919Z,10.25
2022-09-14T03:23:46.440Z,11.18
2022-09-14T03:25:48.011Z,11.35
2022-09-14T03:27:51.264Z,11.90
2022-09-14T03:29:52.814Z,13.30
2022-09-14T03:31:54.411Z,10.80
2022-09-14T03:33:57.940Z,9.97
2022-09-14T03:36:00.031Z,10.17
2022-09-14T03:38:03.184Z,10.00
2022-09-14T03:40:06.320Z,9.03
2022-09-14T03:42:07.868Z,9.03
2022-09-14T03:44:10.280Z,9.10
2022-09-14T03:46:23.624Z,9.17
2022-09-14T03:48:25.146Z,8.63
2022-09-14T03:50:26.655Z,10.20
2022-09-14T03:52:28.307Z,10.20
2022-09-14T03:54:29.852Z,10.17
2022-09-14T03:56:31.366Z,9.33
2022-09-14T03:58:33.228Z,10.43
2022-09-14T04:00:34.893Z,9.07
2022-09-14T04:02:36.542Z,8.77
2022-09-14T04:04:38.249Z,8.90
2022-09-14T04:06:39.763Z,8.37
2022-09-14T04:08:42.450Z,7.67
2022-09-14T04:10:44.017Z,8.80
2022-09-14T04:12:45.601Z,8.17
2022-09-14T04:14:47.131Z,9.30
2022-09-14T04:16:48.744Z,9.23
2022-09-14T04:18:50.335Z,9.53
2022-09-14T04:20:59.180Z,8.70
2022-09-14T04:23:00.739Z,9.13
2022-09-14T04:25:02.559Z,8.27
2022-09-14T04:27:04.227Z,8.50
2022-09-14T04:29:05.973Z,8.27
2022-09-14T04:31:09.862Z,9.03
2022-09-14T04:33:11.401Z,8.23
2022-09-14T04:35:13.030Z,8.07
2022-09-14T04:37:14.610Z,7.97
2022-09-14T04:39:16.751Z,7.87
2022-09-14T04:41:20.586Z,8.10
2022-09-14T04:43:22.635Z,8.30
2022-09-14T04:45:24.227Z,7.77
2022-09-14T04:47:25.794Z,7.73
2022-09-14T04:49:27.312Z,8.37
2022-09-14T04:51:31.098Z,8.57
2022-09-14T04:53:37.638Z,8.60
2022-09-14T04:55:39.205Z,8.27
2022-09-14T04:57:40.731Z,7.70
2022-09-14T04:59:42.281Z,6.77
2022-09-14T05:01:47.484Z,7.37
2022-09-14T05:03:50.737Z,7.20
2022-09-14T05:05:52.274Z,6.93
2022-09-14T05:07:53.777Z,6.43
2022-09-14T05:09:55.286Z,6.33
2022-09-14T05:11:56.830Z,6.57
2022-09-14T05:14:00.665Z,6.50
2022-09-14T05:16:10.841Z,7.03
2022-09-14T05:18:12.744Z,6.45
2022-09-14T05:20:14.328Z,7.37
2022-09-14T05:22:16.125Z,7.97
2022-09-14T05:24:18.920Z,8.10
2022-09-14T05:26:20.520Z,9.03
2022-09-14T05:28:22.123Z,9.40
2022-09-14T05:30:23.766Z,8.70
2022-09-14T05:32:25.336Z,7.47
2022-09-14T05:34:26.969Z,7.40
2022-09-14T05:36:28.711Z,7.67
2022-09-14T05:38:31.622Z,6.33
2022-09-14T05:40:33.259Z,7.67
2022-09-14T05:42:35.519Z,8.93
2022-09-14T05:44:37.094Z,8.80
2022-09-14T05:46:38.802Z,10.07
2022-09-14T05:48:41.192Z,10.50
2022-09-14T05:50:43.418Z,10.80
2022-09-14T05:52:45.035Z,10.70
2022-09-14T05:54:46.620Z,12.20
2022-09-14T05:56:48.341Z,12.37
2022-09-14T05:58:50.739Z,12.13
2022-09-14T06:00:52.343Z,12.10
2022-09-14T06:02:54.804Z,12.23
2022-09-14T06:04:56.417Z,12.67
2022-09-14T06:07:17.425Z,13.30
2022-09-14T06:09:19.650Z,13.57
2022-09-14T06:11:24.852Z,14.60
2022-09-14T06:13:26.510Z,13.43
2022-09-14T06:15:28.082Z,14.57
2022-09-14T06:17:31.277Z,13.57
2022-09-14T06:19:32.935Z,14.90
2022-09-14T06:21:35.098Z,15.43
2022-09-14T06:23:36.936Z,14.67
2022-09-14T06:25:38.527Z,15.63
2022-09-14T06:27:40.087Z,14.93
2022-09-14T06:29:42.088Z,15.13
2022-09-14T06:31:43.708Z,14.13
2022-09-14T06:33:46.381Z,13.43
2022-09-14T06:35:59.791Z,13.93
2022-09-14T06:38:01.393Z,15.30
2022-09-14T06:40:04.390Z,15.03
2022-09-14T06:42:06.174Z,14.80
2022-09-14T06:44:07.899Z,15.73
2022-09-14T06:46:19.960Z,15.43
2022-09-14T06:48:21.533Z,13.80
2022-09-14T06:50:23.151Z,14.80
2022-09-14T06:52:24.728Z,14.80
2022-09-14T06:54:27.076Z,15.50
2022-09-14T06:56:31.341Z,13.97
2022-09-14T06:58:34.243Z,14.50
2022-09-14T07:00:36.502Z,14.77
2022-09-14T07:02:38.173Z,14.70
2022-09-14T07:04:39.775Z,14.00
2022-09-14T07:06:44.240Z,14.32
2022-09-14T07:08:45.853Z,14.73
2022-09-14T07:10:56.038Z,13.97
2022-09-14T07:13:00.456Z,13.60
2022-09-14T07:15:02.089Z,14.73
2022-09-14T07:17:04.138Z,14.03
2022-09-14T07:19:13.643Z,14.60
2022-09-14T07:21:19.092Z,15.63
2022-09-14T07:23:21.501Z,15.33
2022-09-14T07:25:23.136Z,14.60
2022-09-14T07:27:24.760Z,14.77
2022-09-14T07:29:26.439Z,16.17
2022-09-14T07:31:28.029Z,15.10
2022-09-14T07:33:30.070Z,14.83
2022-09-14T07:35:32.715Z,14.67
2022-09-14T07:37:34.460Z,14.67
2022-09-14T07:39:36.479Z,15.93
2022-09-14T07:41:38.441Z,14.60
2022-09-14T07:43:40.158Z,15.23
2022-09-14T07:45:41.801Z,14.32
2022-09-14T07:47:43.623Z,13.70
2022-09-14T07:49:45.268Z,13.73
2022-09-14T07:51:46.934Z,14.43
2022-09-14T07:53:48.506Z,13.60
2022-09-14T07:55:50.115Z,13.63
2022-09-14T07:57:56.668Z,13.60
2022-09-14T07:59:59.116Z,11.90
2022-09-14T08:02:00.840Z,10.75
2022-09-14T08:04:05.502Z,10.73
2022-09-14T08:06:09.755Z,10.57
2022-09-14T08:08:11.319Z,10.63
2022-09-14T08:10:13.551Z,11.20
2022-09-14T08:12:16.292Z,9.35
2022-09-14T08:14:17.943Z,11.18
2022-09-14T08:16:20.640Z,10.63
2022-09-14T08:18:22.211Z,9.90
2022-09-14T08:20:23.775Z,10.25
2022-09-14T08:22:26.021Z,10.55
2022-09-14T08:24:27.636Z,10.27
2022-09-14T08:26:29.641Z,9.95
2022-09-14T08:28:31.536Z,9.63
2022-09-14T08:30:33.625Z,9.30
2022-09-14T08:32:35.394Z,10.02
2022-09-14T08:34:36.991Z,9.80
2022-09-14T08:36:41.298Z,10.18
2022-09-14T08:38:42.944Z,10.15
2022-09-14T08:40:46.016Z,10.07
2022-09-14T08:42:49.077Z,10.45
2022-09-14T08:44:56.553Z,10.30
2022-09-14T08:47:10.117Z,11.30
2022-09-14T08:49:19.226Z,10.82
2022-09-14T08:51:21.308Z,11.57
2022-09-14T08:53:25.327Z,11.18
2022-09-14T08:55:37.528Z,10.73
2022-09-14T08:57:45.672Z,10.60
2022-09-14T09:00:10.976Z,11.43
2022-09-14T09:02:42.761Z,11.55
2022-09-14T09:04:56.291Z,11.23
2022-09-14T09:07:32.881Z,10.75
2022-09-14T09:09:49.586Z,11.73
2022-09-14T09:11:53.639Z,10.43
2022-09-14T09:13:56.766Z,10.48
2022-09-14T09:16:02.284Z,8.95
2022-09-14T09:18:12.628Z,7.95
2022-09-14T09:20:24.669Z,8.13
2022-09-14T09:22:30.342Z,8.13
2022-09-14T09:24:42.960Z,8.60
2022-09-14T09:26:44.705Z,8.70
2022-09-14T09:28:52.478Z,8.82
2022-09-14T09:31:11.427Z,8.10
2022-09-14T09:33:21.765Z,8.13
2022-09-14T09:35:24.839Z,7.50
2022-09-14T09:37:26.479Z,7.28
2022-09-14T09:39:31.217Z,7.20
2022-09-14T09:41:50.405Z,7.20
2022-09-14T09:44:00.516Z,6.40
2022-09-14T09:46:07.652Z,6.43
2022-09-14T09:48:10.647Z,6.60
2022-09-14T09:50:20.397Z,6.75
2022-09-14T09:52:22.277Z,6.15
2022-09-14T09:54:32.402Z,5.30
2022-09-14T09:56:37.787Z,5.88
2022-09-14T09:58:39.743Z,5.35
2022-09-14T10:00:41.467Z,5.05
2022-09-14T10:02:43.121Z,5.20
2022-09-14T10:05:10.271Z,5.35
2022-09-14T10:07:22.721Z,5.10
2022-09-14T10:09:29.796Z,4.93
2022-09-14T10:11:37.663Z,5.20
2022-09-14T10:13:41.016Z,4.93
2022-09-14T10:15:43.601Z,5.22
2022-09-14T10:17:58.213Z,5.35
2022-09-14T10:20:00.056Z,5.05
2022-09-14T10:22:17.538Z,4.45
2022-09-14T10:24:20.581Z,4.65
2022-09-14T10:26:25.821Z,4.00
2022-09-14T10:28:33.954Z,4.57
2022-09-14T10:30:45.400Z,4.93
2022-09-14T10:32:55.417Z,4.18
2022-09-14T10:34:59.550Z,4.15
2022-09-14T10:37:18.849Z,3.53
2022-09-14T10:39:35.228Z,4.00
2022-09-14T10:41:50.096Z,3.65
2022-09-14T10:44:10.256Z,4.10
2022-09-14T10:46:16.793Z,3.47
2022-09-14T10:48:35.706Z,3.92
2022-09-14T10:50:46.145Z,3.90
2022-09-14T10:53:06.600Z,3.25
2022-09-14T10:55:49.999Z,3.38
2022-09-14T10:57:51.506Z,3.42
2022-09-14T11:00:04.703Z,3.28
2022-09-14T11:03:51.511Z,2.92
2022-09-14T11:06:03.957Z,3.30
2022-09-14T11:08:30.067Z,3.13
2022-09-14T11:10:40.601Z,3.42
2022-09-14T11:12:52.155Z,3.17
2022-09-14T11:14:53.611Z,3.25
2022-09-14T11:17:17.028Z,3.67
2022-09-14T11:19:27.940Z,3.50
2022-09-14T11:21:56.772Z,3.00
2022-09-14T11:24:43.761Z,3.13
2022-09-14T11:27:00.523Z,2.70
2022-09-14T11:29:21.234Z,2.78
2022-09-14T11:31:31.449Z,2.90
2022-09-14T11:34:06.737Z,2.85
2022-09-14T11:36:19.646Z,2.80
2022-09-14T11:38:28.580Z,2.70
2022-09-14T11:40:37.821Z,2.70
2022-09-14T11:42:49.147Z,2.78
2022-09-14T11:45:03.358Z,3.22
2022-09-14T11:47:14.030Z,2.72
2022-09-14T11:49:22.167Z,3.20
2022-09-14T11:51:32.799Z,2.70
2022-09-14T11:53:36.018Z,2.78
2022-09-14T11:55:41.806Z,3.25
2022-09-14T11:57:46.347Z,3.60
2022-09-14T11:59:59.776Z,3.25
2022-09-14T12:02:23.133Z,3.53
2022-09-14T12:04:24.907Z,2.90
2022-09-14T12:06:36.784Z,3.13
2022-09-14T12:08:39.833Z,4.95
2022-09-14T12:11:04.598Z,4.90
2022-09-14T12:13:06.206Z,4.55
2022-09-14T12:15:26.214Z,4.43
2022-09-14T12:17:41.445Z,2.25
2022-09-14T12:19:47.982Z,2.30
2022-09-14T12:21:49.812Z,2.20
2022-09-14T12:24:00.615Z,1.92
2022-09-14T12:26:12.532Z,2.28
2022-09-14T12:28:38.327Z,1.65
2022-09-14T12:30:41.156Z,1.90
2022-09-14T12:32:44.299Z,1.50
2022-09-14T12:34:46.495Z,1.60
2022-09-14T12:36:48.537Z,1.63
2022-09-14T12:38:50.192Z,1.90
2022-09-14T12:40:51.914Z,2.30
2022-09-14T12:42:53.516Z,1.60
2022-09-14T12:44:55.579Z,1.83
2022-09-14T12:46:57.474Z,1.70
2022-09-14T12:49:03.432Z,1.77
2022-09-14T12:51:05.852Z,1.90
2022-09-14T12:53:27.865Z,1.50
2022-09-14T12:55:51.121Z,1.60
2022-09-14T12:58:23.284Z,1.80
2022-09-14T13:00:27.002Z,2.23
2022-09-14T13:03:00.685Z,2.40
2022-09-14T13:05:03.199Z,2.25
2022-09-14T13:07:13.553Z,2.13
2022-09-14T13:09:23.596Z,2.13
2022-09-14T13:11:31.536Z,2.20
2022-09-14T13:13:33.692Z,2.38
2022-09-14T13:15:44.725Z,1.98
2022-09-14T13:18:18.871Z,2.20
2022-09-14T13:20:21.650Z,2.50
2022-09-14T13:22:26.107Z,2.20
2022-09-14T13:24:36.633Z,2.05
2022-09-14T13:26:38.599Z,2.88
2022-09-14T13:28:44.760Z,2.90
2022-09-14T13:30:59.106Z,2.88
2022-09-14T13:33:01.322Z,2.33
2022-09-14T13:35:06.759Z,2.50
2022-09-14T13:37:14.641Z,3.20
2022-09-14T13:39:38.723Z,2.95
2022-09-14T13:41:44.190Z,2.63
2022-09-14T13:43:47.515Z,2.42
2022-09-14T13:45:51.713Z,3.03
2022-09-14T13:47:54.428Z,2.60
2022-09-14T13:49:56.721Z,2.90
2022-09-14T13:52:28.098Z,2.75
2022-09-14T13:54:36.513Z,2.70
2022-09-14T13:56:38.111Z,2.67
2022-09-14T13:58:39.719Z,3.25
2022-09-14T14:00:59.106Z,2.40
2022-09-14T14:03:03.359Z,3.00
2022-09-14T14:05:06.255Z,2.60
2022-09-14T14:07:13.799Z,2.88
2022-09-14T14:09:16.229Z,3.20
2022-09-14T14:11:28.062Z,2.42
2022-09-14T14:13:32.628Z,2.40
2022-09-14T14:15:40.909Z,2.10
2022-09-14T14:17:42.748Z,2.22
2022-09-14T14:19:44.373Z,2.75
2022-09-14T14:21:49.139Z,2.20
2022-09-14T14:24:15.705Z,2.00
2022-09-14T14:26:27.448Z,1.88
2022-09-14T14:28:30.342Z,1.75
2022-09-14T14:30:41.589Z,2.20
2022-09-14T14:32:43.495Z,2.10
2022-09-14T14:34:45.057Z,2.63
2022-09-14T14:36:49.956Z,2.15
2022-09-14T14:38:51.660Z,1.85
2022-09-14T14:40:55.623Z,2.15
2022-09-14T14:42:58.570Z,2.67
2022-09-14T14:45:00.701Z,2.15
2022-09-14T14:47:02.372Z,1.95
2022-09-14T14:49:04.055Z,2.42
2022-09-14T14:51:06.403Z,2.22
2022-09-14T14:53:07.999Z,2.03
2022-09-14T14:55:11.118Z,2.22
2022-09-14T14:57:12.776Z,2.13
2022-09-14T14:59:26.820Z,2.07
2022-09-14T15:01:28.686Z,2.22
2022-09-14T15:03:30.354Z,2.13
2022-09-14T15:05:32.350Z,2.67
2022-09-14T15:07:37.616Z,1.90
2022-09-14T15:09:39.535Z,2.00
2022-09-14T15:11:41.368Z,2.13
2022-09-14T15:13:42.970Z,2.73
2022-09-14T15:15:45.018Z,1.98
2022-09-14T15:17:46.796Z,2.33
2022-09-14T15:19:48.647Z,1.77
2022-09-14T15:21:50.210Z,1.83
2022-09-14T15:23:51.829Z,2.20
2022-09-14T15:25:53.656Z,1.90
2022-09-14T15:27:55.220Z,2.17
2022-09-14T15:29:57.307Z,1.67
2022-09-14T15:31:59.028Z,1.63
2022-09-14T15:34:00.904Z,1.77
2022-09-14T15:36:03.408Z,1.77
2022-09-14T15:38:05.920Z,1.87
2022-09-14T15:40:08.099Z,1.80
2022-09-14T15:42:09.932Z,1.80
2022-09-14T15:44:15.552Z,1.70
2022-09-14T15:46:17.226Z,2.00
2022-09-14T15:48:19.571Z,1.92
2022-09-14T15:50:21.151Z,1.90
2022-09-14T15:52:22.758Z,1.60
2022-09-14T15:54:26.301Z,1.70
2022-09-14T15:56:28.271Z,2.10
2022-09-14T15:58:30.481Z,2.13
2022-09-14T16:00:32.149Z,1.80
2022-09-14T16:02:33.881Z,1.80
2022-09-14T16:04:39.555Z,1.73
2022-09-14T16:06:41.615Z,1.85
2022-09-14T16:08:43.249Z,2.03
2022-09-14T16:10:45.079Z,1.90
2022-09-14T16:12:46.728Z,2.00
2022-09-14T16:14:48.329Z,1.55
2022-09-14T16:16:49.940Z,1.70
2022-09-14T16:18:51.671Z,1.90
2022-09-14T16:20:53.436Z,1.75
2022-09-14T16:22:55.197Z,1.55
2022-09-14T16:24:56.806Z,1.60
2022-09-14T16:26:59.122Z,1.70
2022-09-14T16:29:00.891Z,1.73
2022-09-14T16:31:07.671Z,1.70
2022-09-14T16:33:09.485Z,1.63
2022-09-14T16:35:11.095Z,1.63
2022-09-14T16:37:12.770Z,1.60
2022-09-14T16:39:19.702Z,1.50
2022-09-14T16:41:21.587Z,1.40
2022-09-14T16:43:23.200Z,1.80
2022-09-14T16:45:24.956Z,1.48
2022-09-14T16:47:26.586Z,1.58
2022-09-14T16:49:28.644Z,1.27
2022-09-14T16:51:30.875Z,1.60
2022-09-14T16:53:37.458Z,1.75
2022-09-14T16:55:39.072Z,1.85
2022-09-14T16:57:40.622Z,1.73
2022-09-14T16:59:42.224Z,3.15
2022-09-14T17:01:45.526Z,2.80
2022-09-14T17:03:49.376Z,2.30
2022-09-14T17:05:51.128Z,1.75
2022-09-14T17:07:52.712Z,1.92
2022-09-14T17:09:54.440Z,1.63
2022-09-14T17:11:57.734Z,2.00
2022-09-14T17:13:59.975Z,1.90
2022-09-14T17:16:07.220Z,1.80
2022-09-14T17:18:08.839Z,2.50
2022-09-14T17:20:10.551Z,1.73
2022-09-14T17:22:13.038Z,2.00
2022-09-14T17:24:16.600Z,1.80
2022-09-14T17:26:20.214Z,1.80
2022-09-14T17:28:24.609Z,1.80
2022-09-14T17:30:26.258Z,1.67
2022-09-14T17:32:27.979Z,1.60
2022-09-14T17:34:29.664Z,1.70
2022-09-14T17:36:31.873Z,1.63
2022-09-14T17:38:39.403Z,2.00
2022-09-14T17:40:41.131Z,1.70
2022-09-14T17:42:43.028Z,1.90
2022-09-14T17:44:44.814Z,1.70
2022-09-14T17:46:52.588Z,2.10
2022-09-14T17:48:58.218Z,1.65
2022-09-14T17:51:04.247Z,1.70
2022-09-14T17:53:05.824Z,1.70
2022-09-14T17:55:07.678Z,1.90
2022-09-14T17:57:09.313Z,1.80
2022-09-14T17:59:14.567Z,1.83
2022-09-14T18:01:19.024Z,1.92
2022-09-14T18:03:20.805Z,2.10
2022-09-14T18:05:22.691Z,1.90
2022-09-14T18:07:24.504Z,2.00
2022-09-14T18:09:26.093Z,1.98
2022-09-14T18:11:29.055Z,2.40
2022-09-14T18:13:30.845Z,2.00
2022-09-14T18:15:34.946Z,2.05
2022-09-14T18:17:39.010Z,2.00
2022-09-14T18:19:41.162Z,2.10
2022-09-14T18:21:43.460Z,2.03
2022-09-14T18:23:50.084Z,1.88
2022-09-14T18:25:51.799Z,1.85
2022-09-14T18:27:53.400Z,2.20
2022-09-14T18:29:55.342Z,1.92
2022-09-14T18:31:57.009Z,1.77
2022-09-14T18:34:00.867Z,2.17
2022-09-14T18:36:05.487Z,2.00
2022-09-14T18:38:07.793Z,2.00
2022-09-14T18:40:09.989Z,2.45
2022-09-14T18:42:12.042Z,2.30
2022-09-14T18:44:13.621Z,2.28
2022-09-14T18:46:16.682Z,2.63
2022-09-14T18:48:18.634Z,2.42
2022-09-14T18:50:20.564Z,2.28
2022-09-14T18:52:22.190Z,2.28
2022-09-14T18:54:27.639Z,2.58
2022-09-14T18:56:33.174Z,2.35
2022-09-14T18:58:36.807Z,2.88
2022-09-14T19:00:45.919Z,2.17
2022-09-14T19:02:55.490Z,2.50
2022-09-14T19:04:58.217Z,2.22
2022-09-14T19:07:00.640Z,2.33
2022-09-14T19:09:02.908Z,2.50
2022-09-14T19:11:09.812Z,2.35
2022-09-14T19:13:11.580Z,2.20
2022-09-14T19:15:13.290Z,2.15
2022-09-14T19:17:15.159Z,2.17
2022-09-14T19:19:17.282Z,2.58
2022-09-14T19:21:24.546Z,2.10
2022-09-14T19:23:26.312Z,2.35
2022-09-14T19:25:28.030Z,2.42
2022-09-14T19:27:29.859Z,2.40
2022-09-14T19:29:32.888Z,2.35
2022-09-14T19:31:35.295Z,2.38
2022-09-14T19:33:38.009Z,2.25
2022-09-14T19:35:41.799Z,2.58
2022-09-14T19:37:43.470Z,2.20
2022-09-14T19:39:45.460Z,2.50
2022-09-14T19:41:47.534Z,2.80
2022-09-14T19:43:49.496Z,2.58
2022-09-14T19:45:51.288Z,2.45
2022-09-14T19:47:53.049Z,2.40
2022-09-14T19:49:54.770Z,2.33
2022-09-14T19:51:56.717Z,2.40
2022-09-14T19:54:00.603Z,2.30
2022-09-14T19:56:08.953Z,2.50
2022-09-14T19:58:10.530Z,3.20
2022-09-14T20:00:17.523Z,2.70
2022-09-14T20:02:19.862Z,2.85
2022-09-14T20:04:23.664Z,2.30
2022-09-14T20:06:31.877Z,2.38
2022-09-14T20:08:35.102Z,2.60
2022-09-14T20:10:36.692Z,3.03
2022-09-14T20:12:38.377Z,2.67
2022-09-14T20:14:39.953Z,3.08
2022-09-14T20:16:52.105Z,3.00
2022-09-14T20:18:54.172Z,3.10
2022-09-14T20:20:55.836Z,3.30
2022-09-14T20:22:57.424Z,4.30
2022-09-14T20:24:59.038Z,3.38
2022-09-14T20:27:02.148Z,3.60
2022-09-14T20:29:04.446Z,4.18
2022-09-14T20:31:11.153Z,3.58
2022-09-14T20:33:14.189Z,3.50
2022-09-14T20:35:16.107Z,3.50
2022-09-14T20:37:17.679Z,3.67
2022-09-14T20:39:21.765Z,4.13
2022-09-14T20:41:26.016Z,3.65
2022-09-14T20:43:31.072Z,4.28
2022-09-14T20:45:32.659Z,5.25
2022-09-14T20:47:34.251Z,4.85
2022-09-14T20:49:35.979Z,4.90
2022-09-14T20:51:38.184Z,5.13
2022-09-14T20:53:41.535Z,4.88
2022-09-14T20:55:43.106Z,4.73
2022-09-14T20:57:44.674Z,4.70
2022-09-14T20:59:46.550Z,4.82
2022-09-14T21:01:49.730Z,4.32
2022-09-14T21:03:51.706Z,4.28
2022-09-14T21:05:53.951Z,3.83
2022-09-14T21:10:17.114Z,3.50
2022-09-14T21:11:12.031Z,4.63
2022-09-14T21:12:18.863Z,3.88
2022-09-14T21:14:21.516Z,3.83
2022-09-14T21:16:32.645Z,3.63
2022-09-14T21:18:34.248Z,4.10
2022-09-14T21:20:37.300Z,3.35
2022-09-14T21:22:38.965Z,3.70
2022-09-14T21:24:40.557Z,3.70
2022-09-14T21:26:43.627Z,3.80
2022-09-14T21:28:45.661Z,3.50
2022-09-14T21:30:49.053Z,3.50
2022-09-14T21:32:51.345Z,3.60
2022-09-14T21:34:52.950Z,3.28
2022-09-14T21:36:54.658Z,3.88
2022-09-14T21:38:59.950Z,3.90
2022-09-14T21:41:02.639Z,3.13
2022-09-14T21:43:04.263Z,3.70
2022-09-14T21:45:06.266Z,3.75
2022-09-14T21:47:07.999Z,3.30
2022-09-14T21:49:18.609Z,3.20
2022-09-14T21:51:20.134Z,3.10
2022-09-14T21:53:21.765Z,3.05
2022-09-14T21:55:23.383Z,3.20
2022-09-14T21:57:25.005Z,3.17
2022-09-14T21:59:26.627Z,2.72
2022-09-14T22:01:29.730Z,3.20
2022-09-14T22:10:45.955Z,2.72
2022-09-14T22:12:48.611Z,2.90
2022-09-14T22:14:52.067Z,3.20
2022-09-14T22:16:54.393Z,3.17
2022-09-14T22:19:01.047Z,2.92
2022-09-14T22:21:03.753Z,2.97
2022-09-14T22:23:06.334Z,3.63
2022-09-14T22:25:08.540Z,3.10
2022-09-14T22:27:10.827Z,3.05
2022-09-14T22:29:14.508Z,2.75
2022-09-14T22:31:18.123Z,2.63
2022-09-14T22:33:22.332Z,2.50
2022-09-14T22:35:24.009Z,2.50
2022-09-14T22:37:25.696Z,2.78
2022-09-14T22:39:27.419Z,2.90
2022-09-14T22:41:29.559Z,2.35
2022-09-14T22:43:32.479Z,2.53
2022-09-14T22:45:34.333Z,2.28
2022-09-14T22:47:35.995Z,2.47
2022-09-14T22:49:37.627Z,2.38
2022-09-14T22:51:39.831Z,2.25
2022-09-14T22:53:41.615Z,2.55
2022-09-14T22:55:44.875Z,2.50
2022-09-14T22:57:46.498Z,2.57
2022-09-14T22:59:48.278Z,2.80
2022-09-14T23:01:49.993Z,2.47
2022-09-14T23:03:57.788Z,2.33
2022-09-14T23:05:59.995Z,2.80
2022-09-14T23:08:02.649Z,2.63
2022-09-14T23:10:04.552Z,2.70
2022-09-14T23:12:06.383Z,2.38
2022-09-14T23:14:08.418Z,2.70
2022-09-14T23:16:12.455Z,2.70
2022-09-14T23:18:14.544Z,2.80
2022-09-14T23:20:16.557Z,2.57
2022-09-14T23:22:18.364Z,3.03
2022-09-14T23:24:20.345Z,3.05
2022-09-14T23:26:22.863Z,2.67
2022-09-14T23:28:24.676Z,2.67
2022-09-14T23:30:26.363Z,2.90
2022-09-14T23:32:28.081Z,2.95
2022-09-14T23:34:29.845Z,2.83
2022-09-14T23:36:31.991Z,3.35
2022-09-14T23:38:35.405Z,2.67
2022-09-14T23:40:37.137Z,2.95
2022-09-14T23:42:38.933Z,2.67
2022-09-14T23:44:40.579Z,2.42
2022-09-14T23:46:42.229Z,2.20
2022-09-14T23:48:44.680Z,2.33
2022-09-14T23:50:46.301Z,2.20
2022-09-14T23:52:47.920Z,2.25
2022-09-14T23:54:50.180Z,2.20
2022-09-14T23:56:51.810Z,2.10
2022-09-14T23:58:53.431Z,1.70
